This is the latest recevied weather packets stored in our database for station/object DG2GGP-11. If no packets are shown the sender has not sent any weather packets the latest 1 day(s).
| Time | Temp. | Humidity | Pressure | Rain* | Wind** | Luminosity | Snow |
|---|---|---|---|---|---|---|---|
| 1777994357 | 15.56° C | 71% | 1008 hPa | 0 mm | 2.68 m/s, 218° | 2 W/m² | - |
| 1777993757 | 16.67° C | 65% | 1007.8 hPa | 0 mm | 2.68 m/s, 175° | 7 W/m² | - |
| 1777993157 | 16.67° C | 65% | 1007.8 hPa | 0 mm | 2.68 m/s, 150° | 22 W/m² | - |
| 1777992556 | 17.22° C | 64% | 1007.8 hPa | 0 mm | 4.02 m/s, 160° | 18 W/m² | - |
| 1777991957 | 17.22° C | 64% | 1007.9 hPa | 0 mm | 2.24 m/s, 155° | 54 W/m² | - |
| 1777991357 | 17.22° C | 64% | 1008 hPa | 0 mm | 2.68 m/s, 95° | 48 W/m² | - |
| 1777990756 | 16.11° C | 66% | 1008 hPa | 0 mm | 2.24 m/s, 210° | 51 W/m² | - |
| 1777990157 | 15.56° C | 68% | 1008.2 hPa | 0 mm | 2.68 m/s, 158° | 36 W/m² | - |
| 1777989557 | 15.56° C | 69% | 1008.3 hPa | 0 mm | 3.13 m/s, 163° | 40 W/m² | - |
| 1777988957 | 15.56° C | 70% | 1008.4 hPa | 0 mm | 2.24 m/s, 130° | 29 W/m² | - |
| 1777988357 | 14.44° C | 73% | 1008.5 hPa | 0 mm | 2.24 m/s, 165° | 20 W/m² | - |
| 1777987757 | 14.44° C | 74% | 1008.6 hPa | 0 mm | 2.68 m/s, 163° | 18 W/m² | - |
| 1777987157 | 14.44° C | 74% | 1008.7 hPa | 0 mm | 2.68 m/s, 98° | 16 W/m² | - |
| 1777986556 | 13.89° C | 78% | 1008.8 hPa | 0 mm | 3.13 m/s, 158° | 21 W/m² | - |
| 1777985956 | 13.89° C | 81% | 1009 hPa | 0 mm | 2.24 m/s, 140° | 15 W/m² | - |
| 1777985357 | 13.89° C | 81% | 1009 hPa | 0 mm | 1.79 m/s, 5° | 12 W/m² | - |
| 1777984757 | 13.89° C | 81% | 1009.1 hPa | 0 mm | 1.34 m/s, 78° | 9 W/m² | - |
| 1777984156 | 13.33° C | 79% | 1009.2 hPa | 0 mm | 2.24 m/s, 113° | 8 W/m² | - |
| 1777983556 | 13.89° C | 80% | 1009.3 hPa | 0 mm | 1.79 m/s, 105° | 7 W/m² | - |
| 1777982957 | 13.89° C | 80% | 1009.2 hPa | 0 mm | 1.79 m/s, 110° | 7 W/m² | - |
| 1777982357 | 13.89° C | 79% | 1009.2 hPa | 0 mm | 1.34 m/s, 135° | 7 W/m² | - |
| 1777981757 | 13.89° C | 77% | 1009.3 hPa | 0 mm | 0 m/s | 8 W/m² | - |
| 1777981156 | 13.89° C | 78% | 1009.4 hPa | 0 mm | 0.89 m/s, 178° | 7 W/m² | - |
| 1777980557 | 13.89° C | 78% | 1009.4 hPa | 0 mm | 0 m/s | 8 W/m² | - |
| 1777979957 | 13.89° C | 78% | 1009.3 hPa | 0 mm | 0 m/s | 9 W/m² | - |
* Rain latest hour (hover to see other rain measurements)
** Current wind speed in m/s (hover to see current wind gust speed)